INFORMACIÓN METAR y TAF

METAR FOR SAVC
ADDS - METARS form results

(0536 UTC 08 December 2022)
Data provider http://aviationweather.gov/metar/data/
 
METAR text: SAVC 080527Z 30019G31KT CAVOK 18/06 Q0990
Conditions at: SAVC (COMODORO RIVADAV, AR) observed 0527 UTC 08 December 2022
Temperature: 18.0°C (64°F)
Dewpoint: 6.0°C (43°F) [RH = 45%]
Pressure (altimeter): 29.23 inches Hg (990.0 mb)
Winds: from the WNW (300 degrees) at 22 MPH (19 knots; 9.8 m/s)
gusting to 36 MPH (31 knots; 15.9 m/s)
Visibility: 6 or more miles (10+ km)
Ceiling: ceiling and visibility are OK
Clouds: unknown
Weather: no significant weather observed at this time

METAR text: SAVC 080500Z 29016KT CAVOK 18/06 Q0990 RMK PP000
Conditions at: SAVC (COMODORO RIVADAV, AR) observed 0500 UTC 08 December 2022
Temperature: 18.0°C (64°F)
Dewpoint: 6.0°C (43°F) [RH = 45%]
Pressure (altimeter): 29.23 inches Hg (990.0 mb)
Winds: from the WNW (290 degrees) at 18 MPH (16 knots; 8.2 m/s)
Visibility: 6 or more miles (10+ km)
Ceiling: ceiling and visibility are OK
Clouds: unknown
Weather: no significant weather observed at this time

Forecast for: SAVC (COMODORO RIVADAV, AR)
Text: TAF SAVC 080500Z 0806/0906 28025G35KT 9999 BKN025 SCT040 TX26/0819Z TN14/0810Z
Forecast period: 0600 to 1200 UTC 08 December 2022
Forecast type: FROM: standard forecast or significant change
Winds: from the W (280 degrees) at 29 MPH (25 knots; 12.9 m/s)
gusting to 40 MPH (35 knots; 18.0 m/s)
Visibility: 6 or more miles (10+ km)
Ceiling: 2500 feet AGL
Clouds: broken clouds at 2500 feet AGL
scattered clouds at 4000 feet AGL
Weather: no significant weather forecast for this period
Text: BECMG 0812/0814 27035G47KT BLDU
Forecast period: 1200 UTC 08 December 2022 to 0600 UTC 09 December 2022
Forecast type: BECOMING: Conditions expected to become as follows by 1400 UTC 08 December 2022
Winds: from the W (270 degrees) at 40 MPH (35 knots; 18.0 m/s)
gusting to 54 MPH (47 knots; 24.2 m/s)
Visibility: 6 or more miles (10+ km)
Ceiling: 2500 feet AGL
Clouds: broken clouds at 2500 feet AGL
scattered clouds at 4000 feet AGL
Weather: BLDU  (blowing dust)

 MAPA DE AEROPUERTO

 INFORMACIÓN DE PISTA
Pista 7 Longitud 9219 ft Ancho 164 ft
Elevación 189 ft Umbral desplazado 0 ft Rumbo de pista 79
Pista 25 Longitud 9219 ft Ancho 164 ft
Elevación 105 ft Umbral desplazado 0 ft Rumbo de pista 259

 FRECUENCIAS DEL AEROPUERTO
Tipo ARR Nombre COMODORO C Frecuencia 124.3 MHZ
Tipo TWR Nombre COMODORO T Frecuencia 119.9 MHZ

 RADIO AYUDAS DEL AEROPUERTO
Tipo NDB Nombre Comodoro Rivadavia Frecuencia 280 KHZ
Tipo VOR-DME Nombre Comodoro Rivadavia Frecuencia 117500 KHZ
Tipo NDB Nombre Comodoro Rivadavia Frecuencia 260 KHZ



©2022 LAPA Virtual - Todos los derechos reservados.

VAM [MOD Version] - Powered & Development by AccessPoint LLC